Mack, Ohio
Current Conditions -  °F | °C
As of 9:34 PM on Friday 28 Nov 2014 (Local Time) from KI69 Reporting Station
Clear Clear  
Wind Chill: 30°   Ceiling: Unl
Heat Index: 34°   Visibility: 10mi
Dew Point: 19°   Wind: 5mph
Humidity: 56%   Direction: 150°SSE
Pressure: 30.12"   Gusts: NA
Location:  39.1663°N, 84.6602°W
Report Text: KI69 290234Z AUTO 15004KT 10SM CLR 01/M07 A3012 RMK AO1
Loading
Personal Weather Stations






























Interactive Weather Map New forecast layout! Learn more

10-Day Weather Forecast

Advertisements
Track Severe Weather on mobile